Time;durP1;ratioP1;P1;durP2;ratioP2;P2;SDS_P1;SDS_P2;PMS_P1;PMS_P2;Temp;Humidity;BMP_temperature;BMP_pressure;BME280_temperature;BME280_humidity;BME280_pressure;Samples;Min_cycle;Max_cycle;Signal;HPM_P1;HPM_P2
2024/01/23 00:02:14;;;;;;;26.70;2.97;;;;;;;5.37;100.00;101125.09;4974314;28;20030;-93
2024/01/23 00:04:40;;;;;;;34.22;3.92;;;;;;;5.28;100.00;101130.41;4973790;28;20031;-94
2024/01/23 00:07:05;;;;;;;29.10;3.72;;;;;;;5.23;100.00;101115.16;4974680;28;20027;-94
2024/01/23 00:09:30;;;;;;;19.65;3.50;;;;;;;5.30;100.00;101124.38;4974811;28;20089;-94
2024/01/23 00:11:58;;;;;;;25.58;3.78;;;;;;;5.45;100.00;101115.47;4974581;28;20027;-93
2024/01/23 00:14:23;;;;;;;28.10;4.18;;;;;;;5.46;100.00;101108.63;4973682;28;20034;-92
2024/01/23 00:16:49;;;;;;;25.58;3.55;;;;;;;5.50;100.00;101111.06;4973362;28;20390;-93
2024/01/23 00:19:14;;;;;;;28.20;4.25;;;;;;;5.47;100.00;101111.16;4974589;28;20292;-93
2024/01/23 00:21:39;;;;;;;27.80;5.85;;;;;;;5.49;100.00;101116.25;4974616;28;20030;-94
2024/01/23 00:24:05;;;;;;;34.88;5.25;;;;;;;5.53;100.00;101110.16;4974653;28;20514;-94
2024/01/23 00:26:30;;;;;;;24.50;4.45;;;;;;;5.47;100.00;101115.44;4973307;28;20022;-94
2024/01/23 00:28:56;;;;;;;26.75;4.95;;;;;;;5.47;100.00;101131.66;4973732;28;20090;-93
2024/01/23 00:31:21;;;;;;;26.10;3.75;;;;;;;5.48;100.00;101132.47;4974087;28;20034;-93
2024/01/23 00:33:46;;;;;;;27.40;3.83;;;;;;;5.47;100.00;101118.84;4973874;28;20513;-93
2024/01/23 00:36:12;;;;;;;26.90;4.50;;;;;;;5.56;100.00;101131.41;4974138;28;20433;-93
2024/01/23 00:38:37;;;;;;;21.73;3.53;;;;;;;5.40;100.00;101145.47;4972965;28;20041;-94
2024/01/23 00:41:03;;;;;;;33.08;5.60;;;;;;;5.35;100.00;101139.63;4973270;28;20026;-94
2024/01/23 00:43:29;;;;;;;26.92;3.85;;;;;;;5.28;100.00;101123.56;4973087;28;20172;-94
2024/01/23 00:45:55;;;;;;;25.98;4.60;;;;;;;5.26;100.00;101137.28;4972918;28;20266;-92
2024/01/23 00:48:20;;;;;;;30.27;5.47;;;;;;;5.27;100.00;101133.88;4974213;28;20660;-93
2024/01/23 00:50:45;;;;;;;36.50;4.63;;;;;;;5.21;100.00;101128.88;4974362;28;20031;-93
2024/01/23 00:53:11;;;;;;;32.90;5.13;;;;;;;5.24;100.00;101136.47;4973214;28;20026;-95
2024/01/23 00:55:36;;;;;;;30.27;5.32;;;;;;;5.19;100.00;101126.34;4972996;28;20015;-93
2024/01/23 00:58:02;;;;;;;18.55;3.90;;;;;;;5.12;100.00;101130.78;4974131;28;20370;-94
2024/01/23 01:00:27;;;;;;;41.70;4.65;;;;;;;5.02;100.00;101138.72;4974141;28;20064;-95
2024/01/23 01:02:53;;;;;;;31.30;4.15;;;;;;;5.10;100.00;101150.47;4974252;28;20018;-94
2024/01/23 01:05:18;;;;;;;25.58;3.25;;;;;;;5.09;100.00;101148.75;4973026;28;20045;-94
2024/01/23 01:07:43;;;;;;;29.38;5.80;;;;;;;5.04;100.00;101158.25;4974095;28;20034;-94
2024/01/23 01:10:09;;;;;;;34.55;3.72;;;;;;;4.99;100.00;101154.13;4972121;28;20464;-93
2024/01/23 01:12:35;;;;;;;39.55;4.72;;;;;;;4.94;100.00;101157.63;4973139;28;20191;-94
2024/01/23 01:15:00;;;;;;;28.63;4.05;;;;;;;4.90;100.00;101158.59;4972911;28;20120;-94
2024/01/23 01:17:26;;;;;;;19.65;3.15;;;;;;;4.88;100.00;101169.75;4973975;28;20401;-95
2024/01/23 01:19:52;;;;;;;25.70;4.75;;;;;;;4.76;100.00;101157.22;4972866;28;20072;-94
2024/01/23 01:22:17;;;;;;;20.95;3.13;;;;;;;4.71;100.00;101153.03;4972729;28;20527;-93
2024/01/23 01:24:43;;;;;;;19.15;3.15;;;;;;;4.61;100.00;101160.91;4972881;28;20026;-94
2024/01/23 01:27:08;;;;;;;27.60;3.75;;;;;;;4.45;100.00;101162.97;4973806;28;20030;-94
2024/01/23 01:29:34;;;;;;;25.08;3.85;;;;;;;4.36;100.00;101163.97;4972919;28;20042;-94
2024/01/23 01:32:00;;;;;;;25.85;3.90;;;;;;;4.33;100.00;101158.09;4973964;28;20035;-93
2024/01/23 01:34:26;;;;;;;31.13;5.63;;;;;;;4.33;100.00;101158.09;4972618;28;20029;-94
2024/01/23 01:36:51;;;;;;;28.40;4.43;;;;;;;4.31;100.00;101147.06;4972406;28;20027;-94
2024/01/23 01:39:17;;;;;;;29.00;3.33;;;;;;;4.48;100.00;101162.91;4972711;28;20126;-94
2024/01/23 01:41:42;;;;;;;31.42;4.28;;;;;;;4.47;100.00;101151.84;4975262;28;20034;-94
2024/01/23 01:44:07;;;;;;;39.45;3.78;;;;;;;4.50;100.00;101156.03;4976577;28;20033;-94
2024/01/23 01:46:33;;;;;;;33.05;6.38;;;;;;;4.46;100.00;101160.38;4975568;28;20027;-94
2024/01/23 01:48:58;;;;;;;22.35;3.47;;;;;;;4.44;100.00;101158.75;4977709;28;20034;-94
2024/01/23 01:51:26;;;;;;;19.73;3.28;;;;;;;4.48;100.00;101162.91;4976205;28;20081;-95
2024/01/23 01:53:51;;;;;;;18.00;2.72;;;;;;;4.39;100.00;101163.06;4975976;28;20034;-94
2024/01/23 01:56:19;;;;;;;29.05;4.22;;;;;;;4.42;100.00;101168.97;4977492;28;20031;-94
2024/01/23 01:58:45;;;;;;;25.60;4.05;;;;;;;4.41;100.00;101169.00;4976643;28;20027;-95
2024/01/23 02:01:12;;;;;;;37.53;4.85;;;;;;;4.60;100.00;101162.63;4976124;28;20027;-94
2024/01/23 02:03:37;;;;;;;31.60;3.75;;;;;;;4.54;100.00;101173.00;4977420;28;20031;-94
2024/01/23 02:06:04;;;;;;;24.75;4.50;;;;;;;4.56;100.00;101172.97;4975771;28;20122;-94
2024/01/23 02:08:30;;;;;;;24.63;3.63;;;;;;;4.51;100.00;101178.16;4975926;28;20094;-94
2024/01/23 02:10:55;;;;;;;34.70;4.50;;;;;;;4.57;100.00;101172.09;4975694;28;20026;-95
2024/01/23 02:13:22;;;;;;;31.73;4.30;;;;;;;4.60;100.00;101172.03;4976973;28;20478;-94
2024/01/23 02:15:47;;;;;;;26.58;4.00;;;;;;;4.60;100.00;101177.97;4976809;28;20465;-94
2024/01/23 02:18:13;;;;;;;31.50;4.57;;;;;;;4.51;100.00;101178.16;4977214;28;20089;-94
2024/01/23 02:20:38;;;;;;;23.73;5.10;;;;;;;4.51;100.00;101188.38;4975992;28;20014;-94
2024/01/23 02:23:03;;;;;;;38.67;5.40;;;;;;;4.50;100.00;101181.59;4976535;28;20023;-94
2024/01/23 02:25:29;;;;;;;27.98;5.10;;;;;;;4.52;100.00;101184.97;4974698;28;20031;-94
2024/01/23 02:27:55;;;;;;;22.00;6.40;;;;;;;4.52;100.00;101184.13;4975208;28;20405;-94
2024/01/23 02:30:20;;;;;;;30.90;4.05;;;;;;;4.50;100.00;101194.38;4975075;28;20054;-94
2024/01/23 02:32:46;;;;;;;24.63;4.35;;;;;;;4.49;100.00;101191.00;4975205;28;20077;-94
2024/01/23 02:35:15;;;;;;;37.95;4.53;;;;;;;4.65;100.00;101191.50;4975051;28;20061;-94
2024/01/23 02:37:40;;;;;;;25.00;4.07;;;;;;;4.68;100.00;101205.94;4974881;28;20074;-93
2024/01/23 02:40:06;;;;;;;32.63;4.38;;;;;;;4.67;100.00;101199.16;4976134;28;20032;-93
2024/01/23 02:42:32;;;;;;;29.42;4.13;;;;;;;4.64;100.00;101210.28;4974933;28;20425;-93
2024/01/23 02:44:58;;;;;;;33.70;5.07;;;;;;;4.65;100.00;101204.28;4976137;28;20026;-94
2024/01/23 02:47:23;;;;;;;53.80;7.50;;;;;;;4.73;100.00;101201.59;4973796;28;20042;-93
2024/01/23 02:49:49;;;;;;;31.27;3.78;;;;;;;4.69;100.00;101197.41;4973735;28;20023;-94
2024/01/23 02:52:15;;;;;;;23.52;4.15;;;;;;;4.68;100.00;101200.81;4974260;28;20037;-94
2024/01/23 02:54:40;;;;;;;34.90;4.78;;;;;;;4.75;100.00;101196.44;4974742;28;20019;-94
2024/01/23 02:57:05;;;;;;;27.95;4.00;;;;;;;4.79;100.00;101198.06;4975466;28;20493;-94
2024/01/23 02:59:31;;;;;;;27.80;3.50;;;;;;;4.76;100.00;101198.97;4974615;28;20023;-94
2024/01/23 03:01:56;;;;;;;41.38;4.68;;;;;;;4.71;100.00;101200.78;4975498;28;20548;-93
2024/01/23 03:04:21;;;;;;;28.25;4.50;;;;;;;4.65;100.00;101214.50;4975357;28;20027;-93
2024/01/23 03:06:47;;;;;;;35.15;6.30;;;;;;;4.60;100.00;101213.78;4974401;28;20058;-94
2024/01/23 03:09:13;;;;;;;26.58;5.40;;;;;;;4.56;100.00;101222.41;4975579;28;20042;-93
2024/01/23 03:11:39;;;;;;;29.48;4.60;;;;;;;4.53;100.00;101221.59;4974176;28;20524;-94
2024/01/23 03:14:05;;;;;;;35.78;4.60;;;;;;;4.47;100.00;101223.41;4974424;28;20537;-94
2024/01/23 03:16:30;;;;;;;35.03;4.47;;;;;;;4.48;100.00;101239.56;4974079;28;20049;-95
2024/01/23 03:18:55;;;;;;;27.98;5.57;;;;;;;4.43;100.00;101241.38;4975468;28;20481;-94
2024/01/23 03:21:21;;;;;;;25.30;4.28;;;;;;;4.41;100.00;101248.22;4975429;28;20030;-94
2024/01/23 03:23:46;;;;;;;29.75;3.92;;;;;;;4.39;100.00;101244.84;4973948;28;20041;-94
2024/01/23 03:26:12;;;;;;;27.33;3.83;;;;;;;4.28;100.00;101233.13;4975132;28;20038;-94
2024/01/23 03:28:37;;;;;;;38.45;6.32;;;;;;;4.33;100.00;101238.16;4975240;28;20081;-93
2024/01/23 03:31:03;;;;;;;30.90;5.40;;;;;;;4.34;100.00;101237.31;4974391;28;20031;-94
2024/01/23 03:33:29;;;;;;;19.08;4.38;;;;;;;4.22;100.00;101240.94;4973912;28;20127;-95
2024/01/23 03:35:54;;;;;;;32.40;4.35;;;;;;;4.16;100.00;101238.47;4973801;28;20122;-93
2024/01/23 03:38:20;;;;;;;24.88;3.95;;;;;;;4.04;100.00;101247.19;4973897;28;20073;-95
2024/01/23 03:40:45;;;;;;;24.48;4.57;;;;;;;4.03;100.00;101245.50;4973560;28;20033;-94
2024/01/23 03:43:10;;;;;;;22.77;3.42;;;;;;;4.03;100.00;101247.22;4974897;28;20088;-94
2024/01/23 03:45:36;;;;;;;26.73;3.95;;;;;;;3.99;100.00;101238.75;4973470;28;20034;-95
2024/01/23 03:48:03;;;;;;;34.65;5.40;;;;;;;4.02;100.00;101245.53;4973521;28;20041;-94
2024/01/23 03:50:29;;;;;;;30.40;3.83;;;;;;;4.01;100.00;101241.31;4973567;28;20023;-95
2024/01/23 03:52:55;;;;;;;21.73;3.50;;;;;;;3.98;100.00;101241.38;4974740;28;20093;-94
2024/01/23 03:55:20;;;;;;;24.42;3.40;;;;;;;3.93;100.00;101246.53;4973650;28;20031;-94
2024/01/23 03:57:46;;;;;;;30.02;5.40;;;;;;;3.97;100.00;101244.78;4974502;28;20089;-95
2024/01/23 04:00:12;;;;;;;33.90;3.90;;;;;;;4.03;100.00;101242.13;4973634;28;20033;-93
2024/01/23 04:02:58;;;;;;;33.28;3.90;;;;;;;4.19;100.00;101243.50;5049925;28;20143;-92
2024/01/23 04:05:23;;;;;;;25.80;6.70;;;;;;;4.14;100.00;101235.09;5049913;28;20029;-91
2024/01/23 04:07:49;;;;;;;30.35;4.70;;;;;;;4.11;100.00;101230.03;5048547;28;20104;-93
2024/01/23 04:10:14;;;;;;;20.17;3.17;;;;;;;4.07;100.00;101229.28;5050201;28;20029;-93
2024/01/23 04:12:43;;;;;;;32.30;4.15;;;;;;;4.02;100.00;101218.31;5048943;28;20120;-92
2024/01/23 04:15:09;;;;;;;27.27;3.70;;;;;;;3.97;100.00;101216.66;5049987;28;20029;-92
2024/01/23 04:17:34;;;;;;;24.25;3.40;;;;;;;3.89;100.00;101213.41;5049961;28;20017;-93
2024/01/23 04:19:59;;;;;;;17.40;3.17;;;;;;;3.83;100.00;101220.31;5048993;28;20033;-92
2024/01/23 04:22:25;;;;;;;26.95;3.90;;;;;;;3.84;100.00;101222.00;5048208;28;20047;-91
2024/01/23 04:24:50;;;;;;;28.60;3.65;;;;;;;3.85;100.00;101223.69;5047959;28;20112;-92
2024/01/23 04:27:16;;;;;;;37.67;4.10;;;;;;;3.83;100.00;101224.59;5048463;28;20061;-91
2024/01/23 04:29:41;;;;;;;27.33;3.60;;;;;;;3.84;100.00;101216.88;5048573;28;20100;-92
2024/01/23 04:32:07;;;;;;;22.73;3.60;;;;;;;3.97;100.00;101226.88;5049516;28;20033;-92
2024/01/23 04:34:32;;;;;;;26.35;3.80;;;;;;;4.03;100.00;101222.53;5048768;28;20033;-92
2024/01/23 04:36:57;;;;;;;31.50;4.05;;;;;;;4.11;100.00;101209.59;5049242;28;20021;-91
2024/01/23 04:39:23;;;;;;;30.42;4.88;;;;;;;4.19;100.00;101212.84;5048159;28;20075;-92
2024/01/23 04:41:48;;;;;;;33.65;4.05;;;;;;;4.19;100.00;101207.75;5048178;28;20022;-92
2024/01/23 04:44:13;;;;;;;28.17;3.60;;;;;;;4.23;100.00;101206.00;5049276;28;20478;-92
2024/01/23 04:46:39;;;;;;;27.83;3.88;;;;;;;4.34;100.00;101211.75;5049083;28;20096;-93
2024/01/23 04:49:04;;;;;;;32.40;4.13;;;;;;;4.40;100.00;101215.91;5049038;28;20441;-93
2024/01/23 04:51:30;;;;;;;30.63;4.53;;;;;;;4.52;100.00;101213.09;5048292;28;20032;-93
2024/01/23 04:53:56;;;;;;;25.17;3.55;;;;;;;4.66;100.00;101223.88;5049322;28;20037;-93
2024/01/23 04:56:21;;;;;;;44.03;6.15;;;;;;;4.68;100.00;101227.25;5049265;28;20026;-93
2024/01/23 04:58:47;;;;;;;35.38;5.80;;;;;;;4.77;100.00;101235.59;5047918;28;20491;-92
2024/01/23 05:01:12;;;;;;;50.10;9.57;;;;;;;4.89;100.00;101233.63;5048599;28;20042;-92
2024/01/23 05:03:38;;;;;;;52.95;7.22;;;;;;;4.97;100.00;101220.66;5048703;28;20045;-92
2024/01/23 05:06:04;;;;;;;41.92;8.32;;;;;;;4.99;100.00;101218.94;5048688;28;20071;-92
2024/01/23 05:08:29;;;;;;;51.83;8.40;;;;;;;5.11;100.00;101220.38;5047444;28;20017;-92
2024/01/23 05:10:55;;;;;;;22.75;4.70;;;;;;;5.19;100.00;101217.66;5047344;28;20021;-92
2024/01/23 05:13:20;;;;;;;36.40;4.78;;;;;;;5.15;100.00;101222.84;5040589;28;20364;-92
2024/01/23 05:15:46;;;;;;;50.97;5.22;;;;;;;5.14;100.00;101218.59;5033861;28;20061;-92
2024/01/23 05:18:11;;;;;;;31.40;4.60;;;;;;;5.23;100.00;101207.31;5033848;28;20022;-93
2024/01/23 05:20:36;;;;;;;44.15;5.70;;;;;;;5.25;100.00;101209.84;5033863;28;20495;-92
2024/01/23 05:23:05;;;;;;;55.58;7.75;;;;;;;5.26;100.00;101201.28;5035094;28;20083;-91
2024/01/23 05:25:31;;;;;;;34.72;5.90;;;;;;;5.30;100.00;101200.34;5033683;28;20028;-92
2024/01/23 05:27:56;;;;;;;44.95;5.22;;;;;;;5.32;100.00;101193.47;5033892;28;20021;-92
2024/01/23 05:30:23;;;;;;;34.22;5.13;;;;;;;5.46;100.00;101196.53;5033777;28;20047;-93
2024/01/23 05:32:49;;;;;;;52.70;6.40;;;;;;;5.47;100.00;101193.09;5034148;28;20026;-93
2024/01/23 05:35:14;;;;;;;35.90;4.05;;;;;;;5.44;100.00;101193.19;5034831;28;20025;-92
2024/01/23 05:37:40;;;;;;;35.60;5.00;;;;;;;5.42;100.00;101194.94;5034615;28;20033;-92
2024/01/23 05:40:10;;;;;;;30.95;3.72;;;;;;;5.46;100.00;101195.69;5034820;28;20053;-92
2024/01/23 05:42:36;;;;;;;44.80;10.02;;;;;;;5.45;100.00;101189.72;5033146;28;20083;-92
2024/01/23 05:45:03;;;;;;;47.40;5.03;;;;;;;5.55;100.00;101186.06;5034565;28;20025;-92
2024/01/23 05:47:28;;;;;;;31.70;4.40;;;;;;;5.51;100.00;101189.59;5033029;28;20129;-92
2024/01/23 05:49:54;;;;;;;31.67;4.55;;;;;;;5.49;100.00;101185.38;5034990;28;20104;-93
2024/01/23 05:52:19;;;;;;;43.40;5.10;;;;;;;5.51;100.00;101189.59;5034354;28;20104;-92
2024/01/23 05:54:44;;;;;;;37.63;5.95;;;;;;;5.50;100.00;101176.81;5034533;28;20041;-93
2024/01/23 05:57:10;;;;;;;43.15;5.43;;;;;;;5.51;100.00;101184.47;5034291;28;20075;-91
2024/01/23 05:59:36;;;;;;;34.78;4.88;;;;;;;5.48;100.00;101181.13;5034213;28;20056;-92
2024/01/23 06:02:02;;;;;;;37.88;4.80;;;;;;;5.48;100.00;101187.09;5034449;28;20034;-92
2024/01/23 06:04:28;;;;;;;37.33;5.72;;;;;;;5.51;100.00;101179.34;5033217;28;20055;-92
2024/01/23 06:06:54;;;;;;;30.80;4.72;;;;;;;5.51;100.00;101179.34;5034119;28;20072;-92
2024/01/23 06:09:19;;;;;;;36.65;5.07;;;;;;;5.53;100.00;101182.69;5034038;28;20032;-91
2024/01/23 06:11:45;;;;;;;31.65;4.45;;;;;;;5.56;100.00;101182.63;5033718;28;20380;-92
2024/01/23 06:14:10;;;;;;;31.08;4.47;;;;;;;5.54;100.00;101183.56;5032873;28;20032;-90
2024/01/23 06:16:37;;;;;;;36.65;4.13;;;;;;;5.57;100.00;101181.75;5031682;28;20103;-92
2024/01/23 06:19:03;;;;;;;49.15;7.45;;;;;;;5.59;100.00;101191.97;5025182;28;20511;-92
2024/01/23 06:21:28;;;;;;;32.83;5.18;;;;;;;5.63;100.00;101182.47;5042243;28;20163;-92
2024/01/23 06:23:54;;;;;;;50.85;6.55;;;;;;;5.66;100.00;101174.72;5038430;28;20112;-92
2024/01/23 06:26:19;;;;;;;43.53;7.82;;;;;;;5.75;100.00;101177.03;5036077;28;20028;-93
2024/01/23 06:28:45;;;;;;;30.25;4.82;;;;;;;5.74;100.00;101170.25;5039584;28;20025;-92
2024/01/23 06:31:11;;;;;;;31.80;4.45;;;;;;;5.75;100.00;101156.53;5053301;28;20025;-93
2024/01/23 06:33:37;;;;;;;24.42;4.72;;;;;;;5.79;100.00;101166.66;5045351;28;20357;-92
2024/01/23 06:36:02;;;;;;;26.30;3.88;;;;;;;5.79;100.00;101155.59;5033371;28;20491;-93
2024/01/23 06:38:28;;;;;;;23.80;4.20;;;;;;;5.79;100.00;101150.47;5032148;28;20117;-93
2024/01/23 06:40:53;;;;;;;24.45;4.63;;;;;;;5.79;100.00;101150.47;5031383;28;20032;-92
2024/01/23 06:43:19;;;;;;;26.02;4.25;;;;;;;5.81;100.00;101150.44;5033369;28;20032;-92
2024/01/23 06:45:44;;;;;;;27.88;3.80;;;;;;;5.80;100.00;101157.25;5031997;28;20578;-91
2024/01/23 06:48:09;;;;;;;23.38;4.57;;;;;;;5.76;100.00;101145.44;5033355;28;20029;-91
2024/01/23 06:50:35;;;;;;;43.17;4.53;;;;;;;5.77;100.00;101158.19;5033230;28;20025;-92
2024/01/23 06:53:00;;;;;;;38.03;4.57;;;;;;;5.76;100.00;101143.72;5031337;28;20503;-92
2024/01/23 06:55:25;;;;;;;46.80;6.85;;;;;;;5.83;100.00;101149.53;5033180;28;20025;-92
2024/01/23 06:57:51;;;;;;;32.63;4.15;;;;;;;5.87;100.00;101145.97;5029912;28;20025;-92
2024/01/23 07:00:16;;;;;;;24.83;3.50;;;;;;;5.89;100.00;101139.09;5032853;28;20380;-92
2024/01/23 07:02:42;;;;;;;28.10;4.78;;;;;;;5.99;100.00;101138.00;5032889;28;20095;-93
2024/01/23 07:05:07;;;;;;;31.13;3.97;;;;;;;6.00;100.00;101139.69;5033307;28;20375;-91
2024/01/23 07:07:34;;;;;;;29.45;6.88;;;;;;;6.00;100.00;101137.13;5021240;28;20037;-92
2024/01/23 07:09:59;;;;;;;26.95;4.47;;;;;;;5.99;100.00;101130.31;5013656;28;20037;-92
2024/01/23 07:12:25;;;;;;;33.05;4.80;;;;;;;5.98;100.00;101120.13;5013647;28;20030;-92
2024/01/23 07:14:50;;;;;;;25.95;4.90;;;;;;;6.00;100.00;101120.91;5012052;28;20366;-92
2024/01/23 07:17:15;;;;;;;37.15;4.97;;;;;;;6.00;100.00;101114.06;5013464;28;20036;-92
2024/01/23 07:19:41;;;;;;;41.10;5.00;;;;;;;6.04;100.00;101108.84;5013310;28;20056;-91
2024/01/23 07:22:06;;;;;;;45.92;5.90;;;;;;;6.08;100.00;101097.63;5016600;28;20034;-92
2024/01/23 07:24:32;;;;;;;27.88;5.18;;;;;;;6.13;100.00;101088.09;5032859;28;20034;-91
2024/01/23 07:26:57;;;;;;;30.60;3.92;;;;;;;6.14;100.00;101076.94;5030785;28;20395;-91
2024/01/23 07:29:23;;;;;;;27.52;3.88;;;;;;;6.16;100.00;101064.94;5016723;28;20046;-92
2024/01/23 07:31:48;;;;;;;47.58;4.65;;;;;;;6.18;100.00;101064.00;5012921;28;20037;-92
2024/01/23 07:34:13;;;;;;;37.13;5.60;;;;;;;6.18;100.00;101063.16;5011809;28;20030;-92
2024/01/23 07:36:39;;;;;;;24.38;3.85;;;;;;;6.25;100.00;101059.53;5012732;28;20032;-92
2024/01/23 07:39:05;;;;;;;39.15;5.63;;;;;;;6.26;100.00;101048.38;5014562;28;20040;-91
2024/01/23 07:41:31;;;;;;;31.95;4.50;;;;;;;6.32;100.00;101043.09;5012740;28;20210;-92
2024/01/23 07:43:56;;;;;;;27.75;5.05;;;;;;;6.32;100.00;101037.97;5012971;28;20313;-92
2024/01/23 07:46:22;;;;;;;32.72;4.57;;;;;;;6.33;100.00;101034.50;5011492;28;20468;-91
2024/01/23 07:48:48;;;;;;;40.85;5.35;;;;;;;6.37;100.00;101030.13;5012637;28;20105;-91
2024/01/23 07:51:14;;;;;;;34.22;3.75;;;;;;;6.42;100.00;101012.88;5013249;28;20109;-91
2024/01/23 07:53:39;;;;;;;45.05;5.25;;;;;;;6.48;100.00;101009.28;5032366;28;20036;-90
2024/01/23 07:56:05;;;;;;;34.20;4.95;;;;;;;6.52;100.00;101001.44;5030178;28;20483;-90
2024/01/23 07:58:30;;;;;;;34.88;5.28;;;;;;;6.50;100.00;100997.25;5010905;28;20041;-90
2024/01/23 08:00:56;;;;;;;36.80;4.75;;;;;;;6.52;100.00;100998.06;5010904;28;20033;-89
2024/01/23 08:03:21;;;;;;;43.22;5.20;;;;;;;6.51;100.00;101004.91;5043837;28;20491;-91
2024/01/23 08:05:46;;;;;;;30.25;4.25;;;;;;;6.49;100.00;101003.28;5031458;28;20028;-90
2024/01/23 08:08:12;;;;;;;33.95;4.82;;;;;;;6.57;100.00;101006.44;5030176;28;20053;-89
2024/01/23 08:10:37;;;;;;;28.10;4.63;;;;;;;6.58;100.00;101006.41;5030495;28;20063;-90
2024/01/23 08:13:03;;;;;;;30.88;4.05;;;;;;;6.60;100.00;100990.94;5031833;28;20017;-90
2024/01/23 08:15:29;;;;;;;44.60;6.38;;;;;;;6.66;100.00;100993.31;5031486;28;20041;-90
2024/01/23 08:17:55;;;;;;;30.48;4.30;;;;;;;6.70;100.00;100979.47;5031638;28;20029;-90
2024/01/23 08:20:21;;;;;;;43.80;4.75;;;;;;;6.81;100.00;100976.59;5022833;28;20073;-90
2024/01/23 08:22:47;;;;;;;34.58;4.85;;;;;;;6.77;100.00;100975.84;5011552;28;20021;-90
2024/01/23 08:25:12;;;;;;;37.80;5.05;;;;;;;6.80;100.00;100980.03;5011834;28;20105;-90
2024/01/23 08:27:37;;;;;;;35.75;6.05;;;;;;;6.80;100.00;100959.50;5029581;28;20471;-90
2024/01/23 08:30:03;;;;;;;37.80;4.38;;;;;;;6.83;100.00;100950.00;5031610;28;20141;-92
2024/01/23 08:32:28;;;;;;;43.25;4.68;;;;;;;6.89;100.00;100937.84;5030561;28;20056;-92
2024/01/23 08:34:54;;;;;;;44.95;5.45;;;;;;;6.92;100.00;100935.16;5030731;28;20048;-90
2024/01/23 08:37:19;;;;;;;43.42;6.78;;;;;;;6.93;100.00;100935.13;5031351;28;20472;-90
2024/01/23 08:39:45;;;;;;;49.67;4.72;;;;;;;6.98;100.00;100929.84;5032015;28;20375;-88
2024/01/23 08:42:10;;;;;;;43.10;4.32;;;;;;;7.05;100.00;100933.88;5030047;28;20032;-95
2024/01/23 08:44:36;;;;;;;44.28;5.85;;;;;;;7.11;100.00;100933.63;5021936;28;20028;-90
2024/01/23 08:47:03;;;;;;;41.45;4.50;;;;;;;7.23;100.00;100940.91;5021487;28;20025;-89
2024/01/23 08:49:29;;;;;;;36.33;4.65;;;;;;;7.26;100.00;100934.81;5014911;28;20026;-89
2024/01/23 08:51:54;;;;;;;52.22;4.22;;;;;;;7.33;100.00;100912.34;5031643;28;20128;-90
2024/01/23 08:54:19;;;;;;;49.22;5.28;;;;;;;7.40;100.00;100919.75;5018076;28;20026;-89
2024/01/23 08:56:49;;;;;;;46.25;4.10;;;;;;;7.46;100.00;100919.53;5015901;28;20441;-90
2024/01/23 08:59:15;;;;;;;51.75;6.90;;;;;;;7.47;100.00;100910.94;5029915;28;20423;-90
2024/01/23 09:01:40;;;;;;;44.05;5.43;;;;;;;7.48;100.00;100906.63;5031697;28;20102;-89
2024/01/23 09:04:06;;;;;;;41.63;4.97;;;;;;;7.48;100.00;100886.91;5032015;28;20037;-88
2024/01/23 09:06:32;;;;;;;52.72;6.88;;;;;;;7.52;100.00;100872.25;5035716;28;20029;-88
2024/01/23 09:08:57;;;;;;;52.63;5.30;;;;;;;7.55;100.00;100876.41;5032599;28;20407;-89
2024/01/23 09:11:23;;;;;;;38.70;4.55;;;;;;;7.58;100.00;100882.25;5032815;28;20033;-89
2024/01/23 09:13:48;;;;;;;49.97;4.97;;;;;;;7.63;100.00;100880.38;5032000;28;20168;-89
2024/01/23 09:16:13;;;;;;;33.42;4.38;;;;;;;7.67;100.00;100884.50;5031794;28;20373;-90
2024/01/23 09:18:40;;;;;;;47.05;6.30;;;;;;;7.70;100.00;100871.50;5031365;28;20177;-89
2024/01/23 09:21:08;;;;;;;39.92;3.15;;;;;;;7.78;100.00;100867.81;5031203;28;20041;-89
2024/01/23 09:23:33;;;;;;;37.00;3.78;;;;;;;7.82;100.00;100864.25;5032410;28;20026;-89
2024/01/23 09:25:59;;;;;;;31.17;3.15;;;;;;;7.83;100.00;100860.78;5032335;28;20375;-89
2024/01/23 09:28:24;;;;;;;61.88;4.38;;;;;;;7.86;100.00;100865.81;5031774;28;20117;-89
2024/01/23 09:30:49;;;;;;;37.45;6.00;;;;;;;7.89;100.00;100863.09;5031841;28;20032;-89
2024/01/23 09:33:15;;;;;;;38.47;5.95;;;;;;;7.88;100.00;100853.75;5030570;28;20052;-89
2024/01/23 09:35:40;;;;;;;43.40;6.05;;;;;;;7.93;100.00;100836.41;5029101;28;20079;-90
2024/01/23 09:38:05;;;;;;;38.60;6.05;;;;;;;7.94;100.00;100843.19;5031789;28;20056;-90
2024/01/23 09:40:31;;;;;;;34.72;4.50;;;;;;;7.92;100.00;100834.72;5031704;28;20028;-89
2024/01/23 09:42:57;;;;;;;47.53;4.70;;;;;;;7.93;100.00;100847.50;5031362;28;20036;-89
2024/01/23 09:45:29;;;;;;;40.75;6.97;;;;;;;7.91;100.00;100818.44;5032582;28;20791;-90
2024/01/23 09:47:55;;;;;;;38.95;4.20;;;;;;;7.94;100.00;100830.34;5029674;28;20022;-90
2024/01/23 09:50:25;;;;;;;42.13;5.07;;;;;;;8.00;100.00;100827.53;5031406;28;20104;-90
2024/01/23 09:52:51;;;;;;;40.13;4.35;;;;;;;7.97;100.00;100817.38;5032080;28;20487;-90
2024/01/23 09:55:17;;;;;;;35.78;3.78;;;;;;;7.97;100.00;100809.66;5026542;28;20029;-90
2024/01/23 09:57:43;;;;;;;30.05;4.18;;;;;;;8.01;100.00;100787.25;5039416;28;20103;-90
2024/01/23 10:00:12;;;;;;;19.98;3.25;;;;;;;8.02;100.00;100771.78;5032336;28;20113;-89
2024/01/23 10:02:42;;;;;;;41.80;4.07;;;;;;;8.06;100.00;100775.03;5030257;28;20484;-90
2024/01/23 10:05:09;;;;;;;46.33;6.10;;;;;;;8.10;100.00;100761.16;5030658;28;20033;-90
2024/01/23 10:07:39;;;;;;;34.35;5.35;;;;;;;8.13;100.00;100766.16;5032073;28;20028;-90
2024/01/23 10:10:15;;;;;;;31.10;3.90;;;;;;;8.17;100.00;100766.84;5031728;28;20025;-90
2024/01/23 10:12:45;;;;;;;29.65;4.45;;;;;;;8.22;100.00;100760.66;5033151;28;20021;-89
2024/01/23 10:15:16;;;;;;;35.80;3.92;;;;;;;8.30;100.00;100768.03;5030420;28;20091;-90
2024/01/23 10:17:43;;;;;;;35.08;5.18;;;;;;;8.40;100.00;100753.91;5032793;28;20030;-90
2024/01/23 10:20:08;;;;;;;27.05;3.72;;;;;;;8.47;100.00;100755.31;5030811;28;20040;-90
2024/01/23 10:22:34;;;;;;;28.25;4.18;;;;;;;8.57;100.00;100741.13;5029098;28;20025;-90
2024/01/23 10:25:00;;;;;;;29.25;3.78;;;;;;;8.62;100.00;100752.97;5031287;28;20028;-90
2024/01/23 10:27:29;;;;;;;33.90;6.70;;;;;;;8.71;100.00;100742.28;5030318;28;20059;-90
2024/01/23 10:29:55;;;;;;;28.10;3.67;;;;;;;8.73;100.00;100723.28;5029695;28;20491;-90
2024/01/23 10:32:22;;;;;;;29.48;3.40;;;;;;;8.89;100.00;100709.69;5026598;28;20056;-89
2024/01/23 10:34:52;;;;;;;30.02;3.10;;;;;;;9.02;100.00;100704.81;5030916;28;20026;-90
2024/01/23 10:37:20;;;;;;;23.38;3.63;;;;;;;9.08;100.00;100696.81;5028893;28;20410;-90
2024/01/23 10:39:45;;;;;;;28.63;3.08;;;;;;;9.15;100.00;100704.19;5029447;28;20028;-90
2024/01/23 10:42:12;;;;;;;18.75;3.13;;;;;;;9.18;100.00;100685.16;5029286;28;20037;-90
2024/01/23 10:44:40;;;;;;;15.05;2.78;;;;;;;9.30;100.00;100676.84;5028218;28;20025;-90
2024/01/23 10:47:05;;;;;;;23.23;3.22;;;;;;;9.32;100.00;100661.34;5030449;28;20021;-89
2024/01/23 10:49:30;;;;;;;21.77;2.60;;;;;;;9.35;100.00;100672.31;5029887;28;20052;-89
2024/01/23 10:52:03;;;;;;;20.00;4.85;;;;;;;9.43;100.00;100675.34;5029638;28;20028;-89
2024/01/23 10:54:30;;;;;;;10.18;1.88;;;;;;;9.55;100.00;100647.31;5029919;28;20033;-90
2024/01/23 10:56:56;;;;;;;13.32;1.70;;;;;;;9.56;100.00;100648.97;5028326;28;20026;-90
2024/01/23 10:59:26;;;;;;;14.13;2.47;;;;;;;9.65;100.00;100648.50;5034310;28;20053;-90
2024/01/23 11:02:01;;;;;;;13.95;2.08;;;;;;;9.65;100.00;100640.78;5028912;28;20376;-90
2024/01/23 11:04:26;;;;;;;19.67;3.17;;;;;;;9.76;100.00;100635.94;5028836;28;20789;-90
2024/01/23 11:06:54;;;;;;;11.02;1.73;;;;;;;9.75;100.00;100644.56;5033508;28;20138;-90
2024/01/23 11:09:25;;;;;;;8.88;3.22;;;;;;;9.89;100.00;100640.44;5027405;28;20036;-89
2024/01/23 11:11:59;;;;;;;13.50;1.60;;;;;;;9.99;100.00;100641.63;5027297;28;20048;-90